Time;durP1;ratioP1;P1;durP2;ratioP2;P2;SDS_P1;SDS_P2;PMS_P1;PMS_P2;Temp;Humidity;BMP_temperature;BMP_pressure;BME280_temperature;BME280_humidity;BME280_pressure;Samples;Min_cycle;Max_cycle;Signal;HPM_P1;HPM_P2
2022/04/01 00:00:44;;;;;;;27.77;25.00;;;10.90;99.90;;;;;;5051541;28;20075;-70
2022/04/01 00:03:10;;;;;;;29.45;24.67;;;11.00;99.90;;;;;;5052464;28;20440;-70
2022/04/01 00:05:39;;;;;;;28.50;25.70;;;11.00;99.90;;;;;;5044786;28;20022;-71
2022/04/01 00:08:05;;;;;;;27.30;24.58;;;11.00;99.90;;;;;;5044730;28;20053;-71
2022/04/01 00:10:31;;;;;;;28.27;25.55;;;11.10;99.90;;;;;;5041750;28;20026;-70
2022/04/01 00:12:57;;;;;;;25.05;22.63;;;11.00;99.90;;;;;;5044449;28;20048;-70
2022/04/01 00:15:23;;;;;;;25.55;23.00;;;11.00;99.90;;;;;;5045836;28;20030;-72
2022/04/01 00:17:48;;;;;;;23.98;21.83;;;11.00;99.90;;;;;;5051184;28;20151;-72
2022/04/01 00:20:18;;;;;;;24.08;21.67;;;11.10;99.90;;;;;;5048407;28;20128;-71
2022/04/01 00:22:44;;;;;;;22.90;20.48;;;11.10;99.90;;;;;;5049677;28;20021;-71
2022/04/01 00:25:10;;;;;;;24.55;21.65;;;11.10;99.90;;;;;;5048542;28;20024;-70
2022/04/01 00:27:36;;;;;;;36.75;23.58;;;11.00;99.90;;;;;;5053530;28;20536;-71
2022/04/01 00:30:03;;;;;;;21.83;19.80;;;11.00;99.90;;;;;;5048885;28;20039;-70
2022/04/01 00:32:31;;;;;;;23.15;20.95;;;10.90;99.90;;;;;;5045029;28;20613;-71
2022/04/01 00:34:57;;;;;;;23.35;21.35;;;10.90;99.90;;;;;;5049094;28;20021;-70
2022/04/01 00:37:23;;;;;;;23.80;21.45;;;10.90;99.90;;;;;;5044733;28;20094;-71
2022/04/01 00:39:49;;;;;;;21.02;19.13;;;10.80;99.90;;;;;;5049043;28;20095;-71
2022/04/01 00:42:15;;;;;;;21.30;19.60;;;10.80;99.90;;;;;;5047309;28;20020;-71
2022/04/01 00:44:41;;;;;;;19.30;17.58;;;10.90;99.90;;;;;;5049169;28;20070;-70
2022/04/01 00:47:13;;;;;;;20.05;18.38;;;11.00;99.90;;;;;;5038013;28;20095;-71
2022/04/01 00:49:40;;;;;;;19.57;18.07;;;11.00;99.90;;;;;;5045069;28;20029;-72
2022/04/01 00:52:11;;;;;;;20.80;18.90;;;10.90;99.90;;;;;;5044849;28;20411;-71
2022/04/01 00:54:38;;;;;;;22.33;20.33;;;10.90;99.90;;;;;;5047288;28;20056;-72
2022/04/01 00:57:06;;;;;;;21.48;19.52;;;10.90;99.90;;;;;;5043338;28;20466;-71
2022/04/01 00:59:34;;;;;;;23.27;21.23;;;11.00;99.90;;;;;;5049829;28;20025;-70
2022/04/01 01:02:01;;;;;;;21.05;19.25;;;11.00;99.90;;;;;;5049667;28;20066;-71
2022/04/01 01:04:27;;;;;;;21.77;19.98;;;11.00;99.90;;;;;;5032316;28;20112;-71
2022/04/01 01:06:55;;;;;;;24.80;22.38;;;10.90;99.90;;;;;;5048157;28;20036;-71
2022/04/01 01:09:22;;;;;;;26.20;23.73;;;11.00;99.90;;;;;;5053162;28;20033;-70
2022/04/01 01:11:51;;;;;;;29.17;26.08;;;11.00;99.90;;;;;;5047177;28;20028;-71
2022/04/01 01:14:24;;;;;;;28.90;25.92;;;11.00;99.90;;;;;;5040486;28;20028;-71
2022/04/01 01:16:50;;;;;;;27.60;24.85;;;10.90;99.90;;;;;;5043628;28;20033;-71
2022/04/01 01:19:17;;;;;;;28.48;25.88;;;10.80;99.90;;;;;;5047302;28;20035;-71
2022/04/01 01:21:46;;;;;;;27.50;25.00;;;10.80;99.90;;;;;;5050241;28;20039;-71
2022/04/01 01:24:15;;;;;;;29.38;26.52;;;10.80;99.90;;;;;;5047950;28;20116;-71
2022/04/01 01:26:44;;;;;;;29.17;25.35;;;10.80;99.90;;;;;;5047312;28;20028;-71
2022/04/01 01:29:10;;;;;;;28.65;25.65;;;10.80;99.90;;;;;;5049469;28;20112;-70
2022/04/01 01:31:36;;;;;;;27.92;25.48;;;10.80;99.90;;;;;;5049868;28;20480;-71
2022/04/01 01:34:03;;;;;;;26.15;23.75;;;10.80;99.90;;;;;;5042913;28;20028;-71
2022/04/01 01:36:30;;;;;;;26.17;23.70;;;10.80;99.90;;;;;;5044708;28;20036;-71
2022/04/01 01:38:57;;;;;;;27.23;24.73;;;10.80;99.90;;;;;;5045987;28;20021;-71
2022/04/01 01:41:24;;;;;;;24.25;21.95;;;10.80;99.90;;;;;;5048928;28;20033;-70
2022/04/01 01:43:50;;;;;;;24.00;21.70;;;10.80;99.90;;;;;;5048980;28;20104;-70
2022/04/01 01:46:16;;;;;;;23.77;21.52;;;10.80;99.90;;;;;;5043876;28;20100;-70
2022/04/01 01:48:41;;;;;;;24.15;21.73;;;10.80;99.90;;;;;;5040843;28;20159;-71
2022/04/01 01:56:39;;;;;;;24.55;21.95;;;10.80;99.90;;;;;;5035351;28;20037;-70
2022/04/01 01:59:05;;;;;;;23.02;20.88;;;10.90;99.90;;;;;;5045914;28;20118;-70
2022/04/01 02:01:32;;;;;;;21.70;19.40;;;10.80;99.90;;;;;;5049083;28;20029;-69
2022/04/01 02:03:59;;;;;;;19.80;18.05;;;10.80;99.90;;;;;;5038417;28;20115;-70
2022/04/01 02:06:24;;;;;;;19.25;17.52;;;10.80;99.90;;;;;;5042397;28;20024;-69
2022/04/01 02:08:51;;;;;;;19.00;17.38;;;10.80;99.90;;;;;;5045011;28;20463;-70
2022/04/01 02:11:18;;;;;;;18.05;16.45;;;10.70;99.90;;;;;;5040107;28;20036;-70
2022/04/01 02:13:45;;;;;;;19.52;17.88;;;10.70;99.90;;;;;;5039670;28;20561;-70
2022/04/01 02:16:12;;;;;;;18.63;16.80;;;10.70;99.90;;;;;;5043082;28;20095;-69
2022/04/01 02:18:38;;;;;;;20.13;18.33;;;10.70;99.90;;;;;;5045642;28;20087;-69
2022/04/01 02:21:10;;;;;;;19.92;17.92;;;10.90;99.90;;;;;;5041873;28;20032;-69
2022/04/01 02:23:40;;;;;;;21.23;19.13;;;10.90;99.90;;;;;;5043509;28;20021;-70
2022/04/01 02:26:07;;;;;;;19.85;17.90;;;10.90;99.90;;;;;;5042949;28;20048;-70
2022/04/01 02:28:37;;;;;;;21.77;19.67;;;10.80;99.90;;;;;;5041517;28;20031;-70
2022/04/01 02:31:06;;;;;;;22.23;20.23;;;10.80;99.90;;;;;;5043855;28;20023;-70
2022/04/01 02:33:33;;;;;;;22.45;20.20;;;10.80;99.90;;;;;;5046455;28;20033;-71
2022/04/01 02:35:59;;;;;;;21.60;19.50;;;10.80;99.90;;;;;;5047200;28;20047;-71
2022/04/01 02:38:29;;;;;;;25.60;21.27;;;10.70;99.90;;;;;;5040946;28;20140;-71
2022/04/01 02:40:57;;;;;;;22.40;20.50;;;10.70;99.90;;;;;;5046799;28;20183;-70
2022/04/01 02:43:24;;;;;;;23.63;21.38;;;10.70;99.90;;;;;;5043892;28;20021;-71
2022/04/01 02:45:50;;;;;;;23.73;21.52;;;10.60;99.90;;;;;;5044114;28;20182;-71
2022/04/01 02:48:17;;;;;;;23.85;21.63;;;10.60;99.90;;;;;;5037038;28;20116;-69
2022/04/01 02:50:47;;;;;;;24.10;21.92;;;10.60;99.90;;;;;;5039241;28;20021;-70
2022/04/01 02:53:15;;;;;;;23.88;21.65;;;10.60;99.90;;;;;;5043247;28;20031;-70
2022/04/01 02:55:41;;;;;;;24.48;22.20;;;10.50;99.90;;;;;;5044198;28;20024;-70
2022/04/01 02:58:07;;;;;;;21.85;19.75;;;10.50;99.90;;;;;;5041424;28;20112;-69
2022/04/01 03:00:35;;;;;;;22.58;20.35;;;10.50;99.90;;;;;;5040970;28;20017;-70
2022/04/01 03:03:06;;;;;;;23.38;21.08;;;10.60;99.90;;;;;;5043348;28;20108;-69
2022/04/01 03:05:33;;;;;;;21.60;19.63;;;10.60;99.90;;;;;;5040773;28;20089;-70
2022/04/01 03:08:00;;;;;;;22.77;20.77;;;10.50;99.90;;;;;;5037506;28;20699;-71
2022/04/01 03:10:26;;;;;;;20.70;18.75;;;10.50;99.90;;;;;;5032440;28;20025;-69
2022/04/01 03:12:53;;;;;;;21.92;19.92;;;10.60;99.90;;;;;;5042295;28;20039;-71
2022/04/01 03:15:19;;;;;;;23.55;20.50;;;10.60;99.90;;;;;;5047886;28;20394;-71
2022/04/01 03:17:45;;;;;;;19.73;17.98;;;10.50;99.90;;;;;;5044574;28;20093;-70
2022/04/01 03:20:14;;;;;;;23.65;19.05;;;10.60;99.90;;;;;;5047780;28;20385;-70
2022/04/01 03:22:43;;;;;;;22.88;20.70;;;10.60;99.90;;;;;;5051486;28;20021;-70
2022/04/01 03:25:13;;;;;;;22.52;20.45;;;10.50;99.90;;;;;;5051956;28;20032;-70
2022/04/01 03:27:39;;;;;;;22.75;20.60;;;10.60;99.90;;;;;;5042508;28;20175;-71
2022/04/01 03:30:09;;;;;;;22.60;20.42;;;10.60;99.90;;;;;;5043466;28;20447;-70
2022/04/01 03:32:37;;;;;;;22.80;20.60;;;10.40;99.90;;;;;;5043068;28;20021;-70
2022/04/01 03:35:05;;;;;;;23.13;20.75;;;10.40;99.90;;;;;;5041996;28;20468;-70
2022/04/01 03:37:31;;;;;;;20.80;18.70;;;10.40;99.90;;;;;;5042854;28;20092;-70
2022/04/01 03:39:58;;;;;;;19.88;18.05;;;10.50;99.90;;;;;;5050249;28;20024;-71
2022/04/01 03:42:30;;;;;;;19.95;18.02;;;10.50;99.90;;;;;;5048786;28;20104;-72
2022/04/01 03:45:02;;;;;;;19.05;17.23;;;10.50;99.90;;;;;;5049807;28;20498;-70
2022/04/01 03:47:40;;;;;;;19.73;17.77;;;10.50;99.90;;;;;;5045652;28;20028;-71
2022/04/01 03:50:16;;;;;;;21.25;19.05;;;10.60;99.90;;;;;;5045611;28;20141;-72
2022/04/01 03:52:46;;;;;;;21.70;18.30;;;10.60;99.90;;;;;;5049036;28;20028;-71
2022/04/01 03:55:13;;;;;;;35.45;22.52;;;10.60;99.90;;;;;;5047891;28;20031;-72
2022/04/01 03:57:41;;;;;;;19.83;17.67;;;10.60;99.90;;;;;;5047305;28;20123;-74
2022/04/01 04:00:14;;;;;;;18.67;15.93;;;10.60;99.90;;;;;;5046566;28;20052;-72
2022/04/01 04:02:44;;;;;;;16.70;15.05;;;10.60;99.90;;;;;;5049335;28;20147;-71
2022/04/01 04:05:10;;;;;;;17.27;14.98;;;10.50;99.90;;;;;;5042694;28;20033;-71
2022/04/01 04:07:39;;;;;;;18.25;16.55;;;10.60;99.90;;;;;;5042132;28;20479;-71
2022/04/01 04:10:06;;;;;;;18.00;16.48;;;10.50;99.90;;;;;;5045324;28;20571;-71
2022/04/01 04:12:35;;;;;;;15.13;13.73;;;10.50;99.90;;;;;;5041891;28;20021;-71
2022/04/01 04:15:02;;;;;;;15.63;14.13;;;10.50;99.90;;;;;;5047341;28;20026;-71
2022/04/01 04:17:36;;;;;;;15.27;13.88;;;10.50;99.90;;;;;;5041626;28;20048;-73
2022/04/01 04:20:23;;;;;;;18.85;16.33;;;10.50;99.90;;;;;;5043321;28;20059;-71
2022/04/01 04:23:10;;;;;;;18.52;16.88;;;10.50;99.90;;;;;;5048275;28;20086;-71
2022/04/01 04:25:38;;;;;;;17.48;15.85;;;10.50;99.90;;;;;;5047824;28;20101;-71
2022/04/01 04:28:10;;;;;;;21.25;16.90;;;10.50;99.90;;;;;;5050083;28;20043;-72
2022/04/01 04:30:42;;;;;;;20.33;18.20;;;10.40;99.90;;;;;;5046678;28;20025;-71
2022/04/01 04:33:11;;;;;;;20.80;17.65;;;10.40;99.90;;;;;;5045807;28;20021;-71
2022/04/01 04:35:40;;;;;;;18.92;17.10;;;10.30;99.90;;;;;;5047843;28;20082;-71
2022/04/01 04:38:08;;;;;;;19.75;17.92;;;10.30;99.90;;;;;;5050598;28;20512;-72
2022/04/01 04:40:34;;;;;;;21.27;19.10;;;10.10;99.90;;;;;;5046843;28;20017;-74
2022/04/01 04:43:00;;;;;;;20.92;18.83;;;10.20;99.90;;;;;;5043413;28;20017;-71
2022/04/01 04:45:27;;;;;;;20.40;18.50;;;10.20;99.90;;;;;;5043678;28;20022;-70
2022/04/01 04:47:54;;;;;;;22.77;18.48;;;10.20;99.90;;;;;;5048244;28;20053;-70
2022/04/01 04:50:21;;;;;;;20.13;18.02;;;10.20;99.90;;;;;;5031828;28;20048;-71
2022/04/01 04:52:53;;;;;;;18.95;17.15;;;10.20;99.90;;;;;;5063370;28;20031;-70
2022/04/01 04:55:19;;;;;;;;;;;10.20;99.90;;;;;;5070654;28;20035;-72
2022/04/01 04:57:47;;;;;;;20.90;18.65;;;10.30;99.90;;;;;;5051543;28;19912;-72
2022/04/01 05:00:16;;;;;;;19.45;16.83;;;10.30;99.90;;;;;;5050742;28;20017;-72
2022/04/01 05:03:07;;;;;;;19.42;17.17;;;10.30;99.90;;;;;;5048364;28;20917;-71
2022/04/01 05:05:42;;;;;;;18.10;15.75;;;10.40;99.90;;;;;;5042434;28;20079;-71
2022/04/01 05:08:13;;;;;;;19.30;17.42;;;10.40;99.90;;;;;;5052788;28;20021;-71
2022/04/01 05:11:00;;;;;;;20.92;18.65;;;10.40;99.90;;;;;;5051603;28;20158;-70
2022/04/01 05:13:38;;;;;;;19.45;17.45;;;10.40;99.90;;;;;;5048307;28;20033;-71
2022/04/01 05:16:07;;;;;;;19.77;17.75;;;10.50;99.90;;;;;;5040625;28;20522;-73
2022/04/01 05:18:48;;;;;;;19.55;17.55;;;10.60;99.90;;;;;;5046938;28;20107;-72
2022/04/01 05:21:23;;;;;;;19.50;17.53;;;10.60;99.90;;;;;;5049650;28;20037;-72
2022/04/01 05:23:48;;;;;;;17.67;15.95;;;10.70;99.90;;;;;;5040773;28;20276;-71
2022/04/01 05:26:20;;;;;;;18.65;16.95;;;10.70;99.90;;;;;;5037228;28;20391;-71
2022/04/01 05:28:51;;;;;;;20.65;18.52;;;10.80;99.90;;;;;;5042504;28;20168;-71
2022/04/01 05:31:23;;;;;;;22.30;20.20;;;10.70;99.90;;;;;;5050746;28;20027;-72
2022/04/01 05:33:57;;;;;;;19.85;17.95;;;10.80;99.90;;;;;;5041342;28;20028;-72
2022/04/01 05:36:24;;;;;;;19.58;17.70;;;10.90;99.90;;;;;;5042459;28;20332;-70
2022/04/01 05:38:50;;;;;;;20.95;18.75;;;10.90;99.90;;;;;;5048619;28;20154;-71
2022/04/01 05:41:20;;;;;;;18.45;16.80;;;11.00;99.90;;;;;;5048706;28;20032;-70
2022/04/01 05:43:47;;;;;;;20.40;18.48;;;11.00;99.90;;;;;;5040347;28;20021;-71
2022/04/01 05:46:19;;;;;;;19.77;17.88;;;11.00;99.90;;;;;;5041663;28;20082;-70
2022/04/01 05:48:46;;;;;;;;;;;11.00;99.90;;;;;;5051278;28;20115;-71
2022/04/01 05:51:15;;;;;;;20.83;18.20;;;11.00;99.90;;;;;;5050253;28;20256;-72
2022/04/01 05:53:46;;;;;;;21.20;19.00;;;11.10;99.90;;;;;;5040472;28;20475;-72
2022/04/01 05:56:14;;;;;;;19.55;17.55;;;11.20;99.90;;;;;;5029080;28;20448;-72
2022/04/01 05:58:40;;;;;;;18.73;16.65;;;11.20;99.90;;;;;;5034800;28;20381;-72
2022/04/01 06:01:25;;;;;;;20.35;18.27;;;11.20;99.90;;;;;;5037405;28;20025;-70
2022/04/01 06:04:25;;;;;;;22.02;18.25;;;11.20;99.90;;;;;;5029770;28;20029;-72
2022/04/01 06:07:09;;;;;;;20.35;16.83;;;11.20;99.90;;;;;;5030650;28;20037;-72
2022/04/01 06:09:44;;;;;;;19.05;16.75;;;11.20;99.90;;;;;;5034509;28;20029;-71
2022/04/01 06:12:38;;;;;;;22.58;16.88;;;11.20;99.90;;;;;;5037531;28;20452;-72
2022/04/01 06:15:09;;;;;;;18.95;17.00;;;11.30;99.90;;;;;;5028939;28;20041;-71
2022/04/01 06:17:50;;;;;;;21.55;19.25;;;11.30;99.90;;;;;;5029223;28;20341;-71
2022/04/01 06:20:20;;;;;;;20.33;17.83;;;11.20;99.90;;;;;;5039578;28;20033;-72
2022/04/01 06:22:54;;;;;;;21.85;18.33;;;11.20;99.90;;;;;;5030085;28;20037;-71
2022/04/01 06:25:28;;;;;;;21.80;19.67;;;11.10;99.90;;;;;;5030186;28;20045;-71
2022/04/01 06:28:24;;;;;;;22.67;20.48;;;11.10;99.90;;;;;;5035020;28;20040;-71
2022/04/01 06:30:52;;;;;;;21.58;19.33;;;11.00;99.90;;;;;;5030693;28;20025;-71
2022/04/01 06:33:48;;;;;;;22.63;20.35;;;11.10;99.90;;;;;;5040827;28;20037;-71
2022/04/01 06:36:24;;;;;;;22.13;19.83;;;11.10;99.90;;;;;;5038276;28;20083;-71
2022/04/01 06:38:49;;;;;;;31.63;22.08;;;11.20;99.90;;;;;;5047539;28;20021;-70
2022/04/01 06:41:19;;;;;;;25.20;22.70;;;11.10;99.90;;;;;;5039326;28;20079;-71
2022/04/01 06:43:45;;;;;;;23.98;21.00;;;11.10;99.90;;;;;;5030739;28;20029;-70
2022/04/01 06:46:11;;;;;;;45.05;24.33;;;11.10;99.90;;;;;;5029558;28;20026;-71
2022/04/01 06:48:38;;;;;;;20.27;18.27;;;11.10;99.90;;;;;;5029120;28;20214;-70
2022/04/01 06:51:04;;;;;;;26.25;23.20;;;11.20;99.90;;;;;;5041550;28;20097;-73
2022/04/01 06:53:30;;;;;;;23.67;21.25;;;11.20;99.90;;;;;;5038577;28;20045;-71
2022/04/01 06:55:55;;;;;;;23.73;21.42;;;11.30;99.90;;;;;;5035036;28;20074;-71
2022/04/01 06:58:26;;;;;;;22.95;20.27;;;11.30;99.90;;;;;;5033662;28;20091;-71
2022/04/01 07:00:53;;;;;;;25.67;21.10;;;11.30;99.90;;;;;;5043654;28;20029;-70
2022/04/01 07:03:18;;;;;;;27.30;21.52;;;11.20;99.90;;;;;;5039600;28;20414;-71
2022/04/01 07:05:44;;;;;;;23.85;21.42;;;11.20;99.90;;;;;;5034268;28;20116;-70
2022/04/01 07:08:11;;;;;;;22.77;20.38;;;11.20;99.90;;;;;;5034197;28;20682;-72
2022/04/01 07:10:38;;;;;;;22.42;20.23;;;11.30;99.90;;;;;;5038681;28;20033;-71
2022/04/01 07:13:05;;;;;;;46.47;23.13;;;11.20;99.90;;;;;;5052117;28;20039;-71
2022/04/01 07:15:30;;;;;;;22.77;20.38;;;11.20;99.90;;;;;;5053666;28;20033;-74
2022/04/01 07:17:56;;;;;;;26.33;20.13;;;11.30;99.90;;;;;;5053583;28;20021;-71
2022/04/01 07:20:22;;;;;;;20.95;18.75;;;11.30;99.90;;;;;;5044374;28;20468;-71
2022/04/01 07:22:51;;;;;;;21.52;19.23;;;11.40;99.90;;;;;;5042148;28;20478;-71
2022/04/01 07:25:17;;;;;;;25.20;18.83;;;11.40;99.90;;;;;;5032273;28;20634;-71
2022/04/01 07:27:43;;;;;;;21.98;19.70;;;11.30;99.90;;;;;;5033776;28;20036;-72
2022/04/01 07:30:09;;;;;;;20.85;18.83;;;11.20;99.90;;;;;;5037053;28;20033;-64
2022/04/01 07:32:37;;;;;;;25.40;17.67;;;11.10;99.90;;;;;;5041207;28;20124;-64
2022/04/01 07:35:07;;;;;;;25.70;21.17;;;11.10;99.90;;;;;;5041485;28;20021;-63
2022/04/01 07:37:33;;;;;;;24.27;21.73;;;11.10;99.90;;;;;;5058035;28;20025;-64
2022/04/01 07:39:59;;;;;;;21.30;19.08;;;11.10;99.90;;;;;;5038550;28;20058;-64
2022/04/01 07:42:27;;;;;;;21.10;18.85;;;11.10;99.90;;;;;;5040798;28;20022;-64
2022/04/01 07:44:53;;;;;;;21.35;19.45;;;11.20;99.90;;;;;;5042177;28;20026;-65
2022/04/01 07:47:19;;;;;;;21.50;19.40;;;11.10;99.90;;;;;;5042486;28;20020;-64
2022/04/01 07:49:46;;;;;;;22.52;18.65;;;11.20;99.90;;;;;;5044229;28;20024;-63
2022/04/01 07:52:13;;;;;;;20.02;18.15;;;11.30;99.90;;;;;;5048410;28;20383;-63
2022/04/01 07:54:40;;;;;;;24.25;18.77;;;11.40;99.90;;;;;;5042121;28;20021;-63
2022/04/01 07:57:07;;;;;;;21.13;16.50;;;11.40;99.90;;;;;;5050240;28;20025;-64
2022/04/01 07:59:35;;;;;;;19.83;17.88;;;11.40;99.90;;;;;;5047992;28;20583;-63
2022/04/01 08:02:02;;;;;;;21.10;17.27;;;11.50;99.90;;;;;;5043668;28;20407;-63
2022/04/01 08:04:28;;;;;;;19.50;17.58;;;11.50;99.90;;;;;;5037110;28;20056;-63
2022/04/01 08:06:54;;;;;;;21.40;16.50;;;11.60;99.90;;;;;;5058478;28;20049;-63
2022/04/01 08:09:20;;;;;;;15.45;14.05;;;11.70;99.90;;;;;;5049080;28;20061;-63
2022/04/01 08:11:46;;;;;;;15.68;14.27;;;11.70;99.90;;;;;;5050661;28;20507;-63
2022/04/01 08:14:12;;;;;;;17.17;15.57;;;11.80;99.90;;;;;;5044092;28;20029;-64
2022/04/01 08:16:38;;;;;;;20.98;15.35;;;11.80;99.90;;;;;;5061127;28;20056;-63
2022/04/01 08:19:05;;;;;;;15.05;13.55;;;11.80;99.90;;;;;;5046805;28;20064;-62
2022/04/01 08:21:31;;;;;;;22.77;14.77;;;11.90;99.90;;;;;;5050095;28;20060;-63
2022/04/01 08:23:58;;;;;;;13.60;12.38;;;11.90;99.90;;;;;;5046380;28;20112;-64
2022/04/01 08:26:25;;;;;;;14.75;13.32;;;11.90;99.90;;;;;;5042302;28;20355;-63
2022/04/01 08:28:51;;;;;;;14.52;13.05;;;11.90;99.90;;;;;;5050329;28;20029;-64
2022/04/01 08:31:17;;;;;;;15.27;13.82;;;12.00;99.90;;;;;;5051720;28;20120;-64
2022/04/01 08:33:43;;;;;;;15.63;13.95;;;12.00;99.90;;;;;;5053516;28;20052;-65
2022/04/01 08:36:09;;;;;;;20.88;13.48;;;12.10;99.90;;;;;;5041900;28;20033;-65
2022/04/01 08:38:34;;;;;;;14.40;13.02;;;12.10;99.90;;;;;;5033709;28;20029;-64
2022/04/01 08:41:01;;;;;;;10.30;9.30;;;12.30;99.90;;;;;;5038613;28;20021;-65
2022/04/01 08:43:29;;;;;;;10.65;9.55;;;12.40;99.90;;;;;;5043157;28;20332;-64
2022/04/01 08:45:57;;;;;;;12.63;11.32;;;12.40;99.90;;;;;;5043147;28;20658;-64
2022/04/01 08:48:24;;;;;;;13.15;11.95;;;12.40;99.90;;;;;;5051943;28;20025;-64
2022/04/01 08:50:50;;;;;;;15.63;12.55;;;12.60;99.90;;;;;;5046968;28;20028;-63
2022/04/01 08:53:16;;;;;;;10.80;9.80;;;12.80;99.90;;;;;;5047730;28;20071;-64
2022/04/01 08:55:51;;;;;;;10.23;9.23;;;13.00;99.90;;;;;;5041996;28;20036;-65
2022/04/01 08:58:19;;;;;;;8.90;7.88;;;13.00;99.90;;;;;;5039663;28;20032;-63
2022/04/01 09:00:49;;;;;;;7.15;6.57;;;13.00;99.90;;;;;;5046750;28;20106;-64
2022/04/01 09:03:17;;;;;;;8.85;7.18;;;12.90;99.90;;;;;;5037347;28;20024;-64
2022/04/01 09:05:51;;;;;;;7.53;6.82;;;12.80;99.90;;;;;;5046283;28;20028;-63
2022/04/01 09:08:23;;;;;;;9.60;7.47;;;12.70;99.90;;;;;;5043707;28;20017;-63
2022/04/01 09:10:58;;;;;;;6.82;6.22;;;12.60;99.90;;;;;;5048647;28;20487;-62
2022/04/01 09:13:27;;;;;;;7.43;6.72;;;12.60;99.90;;;;;;5043397;28;20033;-64
2022/04/01 09:15:54;;;;;;;7.03;6.43;;;12.60;99.90;;;;;;5047584;28;20086;-64
2022/04/01 09:18:36;;;;;;;7.85;6.72;;;12.60;99.90;;;;;;5050068;28;20488;-64
2022/04/01 09:21:02;;;;;;;8.63;7.72;;;12.60;99.90;;;;;;5051598;28;20037;-63
2022/04/01 09:23:28;;;;;;;7.20;6.50;;;12.70;99.90;;;;;;5049533;28;20052;-63
2022/04/01 09:25:56;;;;;;;11.27;9.90;;;12.70;99.90;;;;;;5051069;28;20467;-63
2022/04/01 09:28:29;;;;;;;8.65;6.82;;;12.90;99.90;;;;;;5051510;28;20032;-63
2022/04/01 09:31:02;;;;;;;7.07;6.45;;;13.00;99.90;;;;;;5050405;28;20021;-63
2022/04/01 09:33:46;;;;;;;5.22;4.72;;;13.30;99.90;;;;;;5048557;28;20025;-63
2022/04/01 09:36:33;;;;;;;6.03;4.93;;;13.20;99.90;;;;;;5042470;28;20067;-63
2022/04/01 09:39:06;;;;;;;5.43;4.47;;;13.30;99.90;;;;;;5056331;28;20028;-60
2022/04/01 09:41:43;;;;;;;5.55;4.82;;;13.30;99.90;;;;;;5041117;28;20456;-63
2022/04/01 09:44:13;;;;;;;5.35;4.38;;;13.50;99.90;;;;;;5042726;28;20388;-63
2022/04/01 09:46:50;;;;;;;7.10;4.57;;;13.60;99.90;;;;;;5044156;28;20021;-65
2022/04/01 09:49:31;;;;;;;4.25;3.83;;;13.50;99.90;;;;;;5043928;28;20387;-63
2022/04/01 09:51:58;;;;;;;5.47;4.43;;;13.60;99.90;;;;;;5049794;28;20040;-63
2022/04/01 09:54:24;;;;;;;6.63;4.80;;;13.60;99.90;;;;;;5044437;28;20432;-63
2022/04/01 09:56:58;;;;;;;6.80;5.05;;;13.60;99.90;;;;;;5042559;28;20039;-63
2022/04/01 09:59:31;;;;;;;5.85;4.95;;;13.60;99.90;;;;;;5031436;28;20029;-64
2022/04/01 10:01:58;;;;;;;8.18;5.18;;;13.70;99.90;;;;;;5045861;28;20029;-63
2022/04/01 10:04:24;;;;;;;8.85;5.45;;;13.80;99.90;;;;;;5041018;28;20704;-63
2022/04/01 10:06:49;;;;;;;7.82;4.70;;;14.00;99.90;;;;;;5041930;28;20021;-62
2022/04/01 10:09:19;;;;;;;7.05;5.50;;;14.20;99.90;;;;;;5049087;28;20021;-63
2022/04/01 10:11:45;;;;;;;7.07;6.25;;;14.20;99.90;;;;;;5050535;28;20037;-63
2022/04/01 10:14:25;;;;;;;7.60;5.38;;;14.50;99.90;;;;;;5046062;28;20032;-63
2022/04/01 10:16:51;;;;;;;7.03;4.57;;;14.70;99.90;;;;;;5041205;28;20528;-64
2022/04/01 10:19:27;;;;;;;6.72;4.97;;;14.80;99.90;;;;;;5036231;28;20084;-65
2022/04/01 10:21:53;;;;;;;9.18;5.65;;;14.90;99.90;;;;;;5043458;28;20074;-65
2022/04/01 10:24:47;;;;;;;8.27;5.90;;;15.00;99.90;;;;;;5041923;28;20025;-63
2022/04/01 10:27:23;;;;;;;9.43;7.03;;;15.10;99.90;;;;;;5043495;28;20090;-64
2022/04/01 10:29:50;;;;;;;11.65;6.57;;;15.20;99.90;;;;;;5048715;28;20548;-63
2022/04/01 10:32:34;;;;;;;8.80;4.53;;;15.40;99.90;;;;;;5048709;28;20036;-64
2022/04/01 10:35:02;;;;;;;10.82;5.32;;;15.40;99.90;;;;;;5040366;28;20025;-65
2022/04/01 10:37:30;;;;;;;10.82;5.13;;;15.40;99.90;;;;;;5041220;28;20021;-64
2022/04/01 10:40:08;;;;;;;5.68;4.65;;;15.60;99.90;;;;;;5040042;28;20033;-64
2022/04/01 10:42:37;;;;;;;9.27;5.43;;;15.70;99.90;;;;;;5035932;28;20029;-66
2022/04/01 10:45:21;;;;;;;6.35;4.53;;;15.80;99.90;;;;;;5036704;28;20073;-64
2022/04/01 10:53:41;;;;;;;6.45;4.07;;;16.10;99.90;;;;;;5042785;28;20037;-63
2022/04/01 10:56:25;;;;;;;6.60;4.63;;;16.10;99.90;;;;;;5037165;28;20616;-63
2022/04/01 10:59:19;;;;;;;6.63;4.47;;;16.00;99.90;;;;;;5036838;28;20056;-63
2022/04/01 11:01:54;;;;;;;7.03;4.97;;;16.10;99.90;;;;;;5047013;28;20045;-68
2022/04/01 11:04:19;;;;;;;5.63;4.35;;;16.40;99.90;;;;;;5045176;28;20093;-67
2022/04/01 11:07:00;;;;;;;5.50;5.00;;;16.70;99.90;;;;;;5042815;28;20120;-66
2022/04/01 11:09:41;;;;;;;5.50;4.97;;;16.90;99.90;;;;;;5040238;28;20057;-66
2022/04/01 11:12:16;;;;;;;9.93;5.18;;;17.10;99.90;;;;;;5039713;28;20025;-66
2022/04/01 11:17:20;;;;;;;7.97;6.15;;;17.10;99.90;;;;;;5042246;28;20091;-66
2022/04/01 11:20:03;;;;;;;11.00;6.05;;;17.00;99.90;;;;;;5047276;28;20029;-67
2022/04/01 11:22:37;;;;;;;9.00;5.40;;;17.10;99.90;;;;;;5050098;28;20478;-66
2022/04/01 11:25:07;;;;;;;6.75;5.68;;;17.10;99.90;;;;;;5043329;28;20104;-67
2022/04/01 11:27:34;;;;;;;9.07;6.40;;;17.00;99.90;;;;;;5040863;28;20029;-67
2022/04/01 11:30:14;;;;;;;12.93;7.10;;;17.10;99.90;;;;;;5042931;28;20032;-65
2022/04/01 11:32:42;;;;;;;10.48;6.43;;;17.00;99.90;;;;;;5041557;28;20025;-68
2022/04/01 11:35:10;;;;;;;9.18;5.75;;;17.00;99.90;;;;;;5047984;28;20106;-68
2022/04/01 11:37:41;;;;;;;11.98;6.50;;;16.90;99.90;;;;;;5051633;28;20021;-67
2022/04/01 11:40:11;;;;;;;9.27;6.05;;;16.70;99.90;;;;;;5043023;28;20021;-68
2022/04/01 11:42:58;;;;;;;11.25;5.53;;;16.30;99.90;;;;;;5044550;28;20129;-65
2022/04/01 11:45:26;;;;;;;9.48;5.68;;;16.30;99.90;;;;;;5048280;28;20025;-67
2022/04/01 11:47:52;;;;;;;13.88;5.60;;;16.40;99.90;;;;;;5044540;28;20057;-64
2022/04/01 11:50:22;;;;;;;8.30;5.43;;;16.30;99.90;;;;;;5046207;28;20075;-64
2022/04/01 11:52:54;;;;;;;7.78;5.57;;;16.30;99.90;;;;;;5052554;28;20021;-63
2022/04/01 11:55:22;;;;;;;6.53;5.10;;;16.40;99.90;;;;;;5044914;28;20463;-65
2022/04/01 11:57:49;;;;;;;10.98;5.82;;;16.40;99.90;;;;;;5044371;28;20096;-63
2022/04/01 12:00:24;;;;;;;10.85;6.65;;;16.50;99.90;;;;;;5031633;28;20534;-64
2022/04/01 12:02:51;;;;;;;12.13;6.28;;;16.40;99.90;;;;;;5036924;28;20037;-64
2022/04/01 12:05:18;;;;;;;15.93;5.47;;;16.40;99.90;;;;;;5050370;28;20055;-64
2022/04/01 12:10:37;;;;;;;7.88;5.03;;;16.50;99.90;;;;;;5044742;28;20097;-64
2022/04/01 12:13:09;;;;;;;10.55;5.88;;;16.30;99.90;;;;;;5050190;28;20108;-65
2022/04/01 12:15:35;;;;;;;8.60;5.57;;;16.10;99.90;;;;;;5043295;28;20451;-63
2022/04/01 12:18:02;;;;;;;9.55;6.53;;;16.00;99.90;;;;;;5050173;28;20107;-63
2022/04/01 12:20:28;;;;;;;11.00;5.60;;;16.00;99.90;;;;;;5041869;28;20029;-63
2022/04/01 12:22:56;;;;;;;9.93;5.53;;;15.90;99.90;;;;;;5045878;28;20017;-64
2022/04/01 12:25:22;;;;;;;8.23;5.22;;;15.90;99.90;;;;;;5046651;28;20499;-63
2022/04/01 12:27:55;;;;;;;11.10;5.05;;;16.00;99.90;;;;;;5046434;28;20468;-63
2022/04/01 12:30:36;;;;;;;9.57;4.72;;;15.80;99.90;;;;;;5044735;28;20041;-64
2022/04/01 12:33:09;;;;;;;9.98;4.38;;;15.60;99.90;;;;;;5059878;28;20026;-65
2022/04/01 12:35:45;;;;;;;10.88;5.70;;;15.60;99.90;;;;;;5048602;28;20466;-64
2022/04/01 12:38:12;;;;;;;8.07;5.07;;;15.80;99.90;;;;;;5049610;28;20029;-64
2022/04/01 12:40:48;;;;;;;17.05;5.07;;;16.00;99.90;;;;;;5051707;28;20036;-66
2022/04/01 12:43:34;;;;;;;7.88;4.30;;;16.30;99.90;;;;;;5047193;28;20529;-66
2022/04/01 12:46:02;;;;;;;14.82;5.22;;;16.50;99.90;;;;;;5027250;28;20033;-65
2022/04/01 12:48:30;;;;;;;11.52;5.32;;;16.60;99.90;;;;;;5038563;28;20032;-64
2022/04/01 12:51:03;;;;;;;10.98;6.07;;;16.70;99.90;;;;;;5051078;28;20028;-64
2022/04/01 12:53:31;;;;;;;9.77;4.68;;;16.70;99.90;;;;;;5047032;28;20449;-64
2022/04/01 12:56:19;;;;;;;13.85;4.90;;;16.60;99.90;;;;;;5047417;28;20033;-65
2022/04/01 12:58:53;;;;;;;8.75;4.05;;;16.70;99.90;;;;;;5044985;28;20029;-64
2022/04/01 13:01:26;;;;;;;8.43;6.35;;;16.80;99.90;;;;;;5040002;28;20109;-64
2022/04/01 13:03:53;;;;;;;5.93;3.80;;;16.90;99.90;;;;;;5045638;28;20116;-64